sensor_id;sensor_type;location;lat;lon;timestamp;pressure;altitude;pressure_sealevel;temperature;humidity
28588;BME280;15787;49.662;10.162;2022-09-29T00:00:58;97616.97;;;7.81;100.00
28588;BME280;15787;49.662;10.162;2022-09-29T00:03:28;97611.41;;;7.81;100.00
28588;BME280;15787;49.662;10.162;2022-09-29T00:05:57;97612.50;;;7.96;100.00
28588;BME280;15787;49.662;10.162;2022-09-29T00:08:27;97607.41;;;7.94;100.00
28588;BME280;15787;49.662;10.162;2022-09-29T00:10:56;97614.88;;;7.72;100.00
28588;BME280;15787;49.662;10.162;2022-09-29T00:13:24;97614.34;;;7.52;100.00
28588;BME280;15787;49.662;10.162;2022-09-29T00:15:56;97612.75;;;7.76;100.00
28588;BME280;15787;49.662;10.162;2022-09-29T00:18:25;97610.78;;;7.64;100.00
28588;BME280;15787;49.662;10.162;2022-09-29T00:21:03;97610.31;;;7.65;100.00
28588;BME280;15787;49.662;10.162;2022-09-29T00:23:32;97610.69;;;7.55;100.00
28588;BME280;15787;49.662;10.162;2022-09-29T00:26:03;97608.13;;;7.35;100.00
28588;BME280;15787;49.662;10.162;2022-09-29T00:28:32;97614.91;;;7.59;100.00
28588;BME280;15787;49.662;10.162;2022-09-29T00:31:01;97612.88;;;7.35;100.00
28588;BME280;15787;49.662;10.162;2022-09-29T00:33:29;97614.56;;;7.57;100.00
28588;BME280;15787;49.662;10.162;2022-09-29T00:35:59;97606.91;;;7.36;100.00
28588;BME280;15787;49.662;10.162;2022-09-29T00:38:29;97611.91;;;7.54;100.00
28588;BME280;15787;49.662;10.162;2022-09-29T00:40:57;97617.56;;;7.38;100.00
28588;BME280;15787;49.662;10.162;2022-09-29T00:43:48;97604.47;;;7.26;100.00
28588;BME280;15787;49.662;10.162;2022-09-29T00:46:18;97602.91;;;7.50;100.00
28588;BME280;15787;49.662;10.162;2022-09-29T00:48:47;97607.91;;;7.55;100.00
28588;BME280;15787;49.662;10.162;2022-09-29T00:51:16;97609.56;;;7.78;100.00
28588;BME280;15787;49.662;10.162;2022-09-29T00:53:47;97608.09;;;7.60;100.00
28588;BME280;15787;49.662;10.162;2022-09-29T00:56:16;97605.88;;;7.55;100.00
28588;BME280;15787;49.662;10.162;2022-09-29T00:58:47;97612.97;;;7.82;100.00
28588;BME280;15787;49.662;10.162;2022-09-29T01:01:20;97602.31;;;7.80;100.00
28588;BME280;15787;49.662;10.162;2022-09-29T01:03:51;97602.28;;;7.93;100.00
28588;BME280;15787;49.662;10.162;2022-09-29T01:06:23;97605.75;;;7.84;100.00
28588;BME280;15787;49.662;10.162;2022-09-29T01:08:56;97597.88;;;7.83;100.00
28588;BME280;15787;49.662;10.162;2022-09-29T01:11:28;97600.16;;;7.97;100.00
28588;BME280;15787;49.662;10.162;2022-09-29T01:13:57;97602.63;;;7.95;100.00
28588;BME280;15787;49.662;10.162;2022-09-29T01:16:29;97593.13;;;8.05;100.00
28588;BME280;15787;49.662;10.162;2022-09-29T01:19:00;97602.88;;;7.88;100.00
28588;BME280;15787;49.662;10.162;2022-09-29T01:21:34;97599.66;;;7.77;100.00
28588;BME280;15787;49.662;10.162;2022-09-29T01:24:35;97591.06;;;7.84;100.00
28588;BME280;15787;49.662;10.162;2022-09-29T01:27:14;97596.28;;;7.94;100.00
28588;BME280;15787;49.662;10.162;2022-09-29T01:29:55;97596.56;;;8.09;100.00
28588;BME280;15787;49.662;10.162;2022-09-29T01:35:27;97607.75;;;7.84;100.00
28588;BME280;15787;49.662;10.162;2022-09-29T01:38:05;97602.16;;;7.96;100.00
28588;BME280;15787;49.662;10.162;2022-09-29T01:40:44;97600.13;;;7.75;100.00
28588;BME280;15787;49.662;10.162;2022-09-29T01:43:18;97603.22;;;7.77;100.00
28588;BME280;15787;49.662;10.162;2022-09-29T01:45:50;97605.25;;;7.98;100.00
28588;BME280;15787;49.662;10.162;2022-09-29T01:48:27;97605.47;;;8.04;100.00
28588;BME280;15787;49.662;10.162;2022-09-29T01:51:00;97605.84;;;7.81;100.00
28588;BME280;15787;49.662;10.162;2022-09-29T01:53:36;97602.09;;;7.75;100.00
28588;BME280;15787;49.662;10.162;2022-09-29T01:56:20;97605.47;;;8.04;100.00
28588;BME280;15787;49.662;10.162;2022-09-29T01:58:52;97602.13;;;8.09;100.00
28588;BME280;15787;49.662;10.162;2022-09-29T02:01:26;97599.47;;;8.05;100.00
28588;BME280;15787;49.662;10.162;2022-09-29T02:04:00;97606.50;;;7.97;100.00
28588;BME280;15787;49.662;10.162;2022-09-29T02:06:32;97606.25;;;8.04;100.00
28588;BME280;15787;49.662;10.162;2022-09-29T02:09:07;97606.78;;;8.12;100.00
28588;BME280;15787;49.662;10.162;2022-09-29T02:11:39;97609.56;;;8.12;100.00
28588;BME280;15787;49.662;10.162;2022-09-29T02:14:11;97612.72;;;8.01;100.00
28588;BME280;15787;49.662;10.162;2022-09-29T02:16:46;97610.38;;;8.00;100.00
28588;BME280;15787;49.662;10.162;2022-09-29T02:19:18;97614.22;;;7.68;100.00
28588;BME280;15787;49.662;10.162;2022-09-29T02:21:47;97614.53;;;7.95;100.00
28588;BME280;15787;49.662;10.162;2022-09-29T02:24:20;97611.19;;;7.88;100.00
28588;BME280;15787;49.662;10.162;2022-09-29T02:26:49;97616.00;;;7.62;100.00
28588;BME280;15787;49.662;10.162;2022-09-29T02:29:17;97615.16;;;7.99;100.00
28588;BME280;15787;49.662;10.162;2022-09-29T02:31:46;97611.75;;;7.95;100.00
28588;BME280;15787;49.662;10.162;2022-09-29T02:34:18;97609.72;;;7.96;100.00
28588;BME280;15787;49.662;10.162;2022-09-29T02:36:55;97615.50;;;7.89;100.00
28588;BME280;15787;49.662;10.162;2022-09-29T02:39:32;97619.00;;;7.80;100.00
28588;BME280;15787;49.662;10.162;2022-09-29T02:42:11;97608.59;;;7.93;100.00
28588;BME280;15787;49.662;10.162;2022-09-29T02:44:51;97612.50;;;8.08;100.00
28588;BME280;15787;49.662;10.162;2022-09-29T02:47:37;97610.31;;;8.25;100.00
28588;BME280;15787;49.662;10.162;2022-09-29T02:50:24;97617.63;;;7.97;100.00
28588;BME280;15787;49.662;10.162;2022-09-29T02:53:01;97628.44;;;7.70;100.00
28588;BME280;15787;49.662;10.162;2022-09-29T02:55:36;97628.53;;;7.79;100.00
28588;BME280;15787;49.662;10.162;2022-09-29T02:58:14;97626.19;;;7.90;100.00
28588;BME280;15787;49.662;10.162;2022-09-29T03:00:43;97616.53;;;7.82;100.00
28588;BME280;15787;49.662;10.162;2022-09-29T03:03:12;97625.22;;;7.09;100.00
28588;BME280;15787;49.662;10.162;2022-09-29T03:05:41;97622.31;;;7.12;100.00
28588;BME280;15787;49.662;10.162;2022-09-29T03:08:09;97616.09;;;6.95;100.00
28588;BME280;15787;49.662;10.162;2022-09-29T03:10:36;97617.47;;;7.54;100.00
28588;BME280;15787;49.662;10.162;2022-09-29T03:13:04;97615.47;;;7.54;100.00
28588;BME280;15787;49.662;10.162;2022-09-29T03:15:32;97623.13;;;7.25;100.00
28588;BME280;15787;49.662;10.162;2022-09-29T03:18:00;97615.78;;;7.06;100.00
28588;BME280;15787;49.662;10.162;2022-09-29T03:20:35;97623.34;;;7.18;100.00
28588;BME280;15787;49.662;10.162;2022-09-29T03:23:04;97623.34;;;7.43;100.00
28588;BME280;15787;49.662;10.162;2022-09-29T03:25:33;97621.66;;;7.58;100.00
28588;BME280;15787;49.662;10.162;2022-09-29T03:28:01;97625.34;;;7.30;100.00
28588;BME280;15787;49.662;10.162;2022-09-29T03:30:30;97619.13;;;7.39;100.00
28588;BME280;15787;49.662;10.162;2022-09-29T03:32:57;97617.13;;;7.39;100.00
28588;BME280;15787;49.662;10.162;2022-09-29T03:35:25;97619.00;;;7.68;100.00
28588;BME280;15787;49.662;10.162;2022-09-29T03:37:56;97628.78;;;7.72;100.00
28588;BME280;15787;49.662;10.162;2022-09-29T03:40:27;97621.91;;;7.64;100.00
28588;BME280;15787;49.662;10.162;2022-09-29T03:42:55;97629.34;;;7.67;100.00
28588;BME280;15787;49.662;10.162;2022-09-29T03:45:23;97624.34;;;7.75;100.00
28588;BME280;15787;49.662;10.162;2022-09-29T03:47:51;97626.66;;;7.76;100.00
28588;BME280;15787;49.662;10.162;2022-09-29T03:50:19;97634.06;;;7.92;100.00
28588;BME280;15787;49.662;10.162;2022-09-29T03:52:47;97631.88;;;7.87;100.00
28588;BME280;15787;49.662;10.162;2022-09-29T03:55:14;97633.44;;;7.75;100.00
28588;BME280;15787;49.662;10.162;2022-09-29T03:57:44;97632.50;;;7.91;100.00
28588;BME280;15787;49.662;10.162;2022-09-29T04:00:13;97635.78;;;7.77;100.00
28588;BME280;15787;49.662;10.162;2022-09-29T04:02:41;97636.06;;;7.91;100.00
28588;BME280;15787;49.662;10.162;2022-09-29T04:05:09;97635.84;;;7.86;100.00
28588;BME280;15787;49.662;10.162;2022-09-29T04:07:37;97637.97;;;7.94;100.00
28588;BME280;15787;49.662;10.162;2022-09-29T04:10:05;97633.06;;;7.86;100.00
28588;BME280;15787;49.662;10.162;2022-09-29T04:12:33;97623.56;;;7.49;100.00
28588;BME280;15787;49.662;10.162;2022-09-29T04:15:03;97625.56;;;7.61;100.00
28588;BME280;15787;49.662;10.162;2022-09-29T04:17:31;97625.69;;;7.70;100.00
28588;BME280;15787;49.662;10.162;2022-09-29T04:20:00;97630.22;;;7.26;100.00
28588;BME280;15787;49.662;10.162;2022-09-29T04:22:28;97622.78;;;7.23;100.00
28588;BME280;15787;49.662;10.162;2022-09-29T04:24:56;97628.41;;;7.07;100.00
28588;BME280;15787;49.662;10.162;2022-09-29T04:27:24;97634.44;;;7.31;100.00
28588;BME280;15787;49.662;10.162;2022-09-29T04:29:52;97634.78;;;7.45;100.00
28588;BME280;15787;49.662;10.162;2022-09-29T04:32:21;97629.78;;;7.40;100.00
28588;BME280;15787;49.662;10.162;2022-09-29T04:34:50;97626.13;;;7.43;100.00
28588;BME280;15787;49.662;10.162;2022-09-29T04:37:18;97627.69;;;7.44;100.00
28588;BME280;15787;49.662;10.162;2022-09-29T04:39:46;97623.47;;;7.52;100.00
28588;BME280;15787;49.662;10.162;2022-09-29T04:42:14;97629.91;;;7.37;100.00
28588;BME280;15787;49.662;10.162;2022-09-29T04:44:41;97630.13;;;6.63;100.00
28588;BME280;15787;49.662;10.162;2022-09-29T04:47:09;97630.16;;;6.76;100.00
28588;BME280;15787;49.662;10.162;2022-09-29T04:49:38;97623.31;;;7.06;100.00
28588;BME280;15787;49.662;10.162;2022-09-29T04:52:08;97622.66;;;7.02;100.00
28588;BME280;15787;49.662;10.162;2022-09-29T04:54:37;97625.63;;;6.94;100.00
28588;BME280;15787;49.662;10.162;2022-09-29T04:57:05;97631.28;;;6.50;100.00
28588;BME280;15787;49.662;10.162;2022-09-29T04:59:33;97619.94;;;6.73;100.00
28588;BME280;15787;49.662;10.162;2022-09-29T05:02:01;97618.28;;;6.75;100.00
28588;BME280;15787;49.662;10.162;2022-09-29T05:04:29;97615.81;;;6.77;100.00
28588;BME280;15787;49.662;10.162;2022-09-29T05:06:58;97612.00;;;6.59;100.00
28588;BME280;15787;49.662;10.162;2022-09-29T05:09:27;97622.38;;;6.71;100.00
28588;BME280;15787;49.662;10.162;2022-09-29T05:11:59;97609.47;;;6.64;100.00
28588;BME280;15787;49.662;10.162;2022-09-29T05:14:28;97620.19;;;6.50;100.00
28588;BME280;15787;49.662;10.162;2022-09-29T05:16:56;97616.38;;;6.15;100.00
28588;BME280;15787;49.662;10.162;2022-09-29T05:19:24;97628.38;;;6.41;100.00
28588;BME280;15787;49.662;10.162;2022-09-29T05:21:52;97624.22;;;6.32;100.00
28588;BME280;15787;49.662;10.162;2022-09-29T05:24:21;97630.44;;;6.36;100.00
28588;BME280;15787;49.662;10.162;2022-09-29T05:26:49;97636.81;;;6.50;100.00
28588;BME280;15787;49.662;10.162;2022-09-29T05:29:24;97638.47;;;6.47;100.00
28588;BME280;15787;49.662;10.162;2022-09-29T05:31:51;97635.19;;;6.36;100.00
28588;BME280;15787;49.662;10.162;2022-09-29T05:34:20;97638.03;;;6.04;100.00
28588;BME280;15787;49.662;10.162;2022-09-29T05:36:48;97639.69;;;6.17;100.00
28588;BME280;15787;49.662;10.162;2022-09-29T05:39:16;97642.97;;;6.12;100.00
28588;BME280;15787;49.662;10.162;2022-09-29T05:41:48;97639.41;;;6.12;100.00
28588;BME280;15787;49.662;10.162;2022-09-29T05:44:16;97643.25;;;5.86;100.00
28588;BME280;15787;49.662;10.162;2022-09-29T05:46:44;97634.22;;;6.14;100.00
28588;BME280;15787;49.662;10.162;2022-09-29T05:49:12;97639.22;;;6.19;100.00
28588;BME280;15787;49.662;10.162;2022-09-29T05:51:40;97642.34;;;6.21;100.00
28588;BME280;15787;49.662;10.162;2022-09-29T05:54:08;97645.16;;;6.05;100.00
28588;BME280;15787;49.662;10.162;2022-09-29T05:56:36;97645.31;;;6.14;100.00
28588;BME280;15787;49.662;10.162;2022-09-29T05:59:12;97646.50;;;6.13;100.00
28588;BME280;15787;49.662;10.162;2022-09-29T06:01:40;97648.88;;;5.82;100.00
28588;BME280;15787;49.662;10.162;2022-09-29T06:04:08;97646.97;;;5.95;100.00
28588;BME280;15787;49.662;10.162;2022-09-29T06:06:36;97647.81;;;6.08;100.00
28588;BME280;15787;49.662;10.162;2022-09-29T06:09:06;97646.34;;;6.04;100.00
28588;BME280;15787;49.662;10.162;2022-09-29T06:11:34;97651.63;;;5.98;100.00
28588;BME280;15787;49.662;10.162;2022-09-29T06:14:02;97656.41;;;5.98;100.00
28588;BME280;15787;49.662;10.162;2022-09-29T06:16:32;97668.31;;;5.79;100.00
28588;BME280;15787;49.662;10.162;2022-09-29T06:19:00;97666.69;;;5.81;100.00
28588;BME280;15787;49.662;10.162;2022-09-29T06:21:29;97679.00;;;5.44;100.00
28588;BME280;15787;49.662;10.162;2022-09-29T06:23:59;97682.44;;;5.84;100.00
28588;BME280;15787;49.662;10.162;2022-09-29T06:26:28;97680.53;;;5.81;100.00
28588;BME280;15787;49.662;10.162;2022-09-29T06:28:57;97678.06;;;5.87;100.00
28588;BME280;15787;49.662;10.162;2022-09-29T06:31:26;97674.66;;;6.11;100.00
28588;BME280;15787;49.662;10.162;2022-09-29T06:33:57;97677.00;;;6.13;100.00
28588;BME280;15787;49.662;10.162;2022-09-29T06:36:26;97675.00;;;6.13;100.00
28588;BME280;15787;49.662;10.162;2022-09-29T06:39:14;97677.00;;;6.13;100.00
28588;BME280;15787;49.662;10.162;2022-09-29T06:41:43;97672.53;;;6.48;100.00
28588;BME280;15787;49.662;10.162;2022-09-29T06:44:14;97675.56;;;6.53;100.00
28588;BME280;15787;49.662;10.162;2022-09-29T06:46:42;97668.03;;;6.66;100.00
28588;BME280;15787;49.662;10.162;2022-09-29T06:49:12;97681.19;;;6.78;100.00
28588;BME280;15787;49.662;10.162;2022-09-29T06:51:41;97679.19;;;6.79;100.00
28588;BME280;15787;49.662;10.162;2022-09-29T06:54:13;97676.59;;;7.00;100.00
28588;BME280;15787;49.662;10.162;2022-09-29T06:56:45;97685.03;;;7.10;100.00
28588;BME280;15787;49.662;10.162;2022-09-29T06:59:13;97682.56;;;7.53;100.00
28588;BME280;15787;49.662;10.162;2022-09-29T07:01:42;97683.56;;;7.72;100.00
28588;BME280;15787;49.662;10.162;2022-09-29T07:04:12;97691.88;;;7.84;100.00
28588;BME280;15787;49.662;10.162;2022-09-29T07:06:40;97694.56;;;7.88;100.00
28588;BME280;15787;49.662;10.162;2022-09-29T07:09:08;97698.44;;;8.28;100.00
28588;BME280;15787;49.662;10.162;2022-09-29T07:11:42;97696.63;;;8.34;100.00
28588;BME280;15787;49.662;10.162;2022-09-29T07:14:16;97696.94;;;8.49;100.00
28588;BME280;15787;49.662;10.162;2022-09-29T07:16:44;97698.53;;;8.71;100.00
28588;BME280;15787;49.662;10.162;2022-09-29T07:19:16;97701.69;;;8.82;100.00
28588;BME280;15787;49.662;10.162;2022-09-29T07:21:44;97708.78;;;9.18;100.00
28588;BME280;15787;49.662;10.162;2022-09-29T07:24:12;97710.50;;;9.03;100.00
28588;BME280;15787;49.662;10.162;2022-09-29T07:26:40;97706.03;;;8.83;100.00
28588;BME280;15787;49.662;10.162;2022-09-29T07:29:08;97714.06;;;8.81;100.00
28588;BME280;15787;49.662;10.162;2022-09-29T07:31:41;97725.59;;;9.14;100.00
28588;BME280;15787;49.662;10.162;2022-09-29T07:34:19;97716.41;;;9.05;100.00
28588;BME280;15787;49.662;10.162;2022-09-29T07:36:47;97724.91;;;9.23;100.00
28588;BME280;15787;49.662;10.162;2022-09-29T07:39:15;97715.22;;;9.36;100.00
28588;BME280;15787;49.662;10.162;2022-09-29T07:41:43;97723.72;;;9.33;100.00
28588;BME280;15787;49.662;10.162;2022-09-29T07:44:11;97723.00;;;9.41;100.00
28588;BME280;15787;49.662;10.162;2022-09-29T07:46:39;97719.72;;;9.12;100.00
28588;BME280;15787;49.662;10.162;2022-09-29T07:49:07;97725.84;;;9.29;100.00
28588;BME280;15787;49.662;10.162;2022-09-29T07:51:36;97724.56;;;9.73;100.00
28588;BME280;15787;49.662;10.162;2022-09-29T07:54:05;97718.13;;;9.94;100.00
28588;BME280;15787;49.662;10.162;2022-09-29T07:56:33;97726.00;;;10.18;100.00
28588;BME280;15787;49.662;10.162;2022-09-29T07:59:01;97732.00;;;10.74;100.00
28588;BME280;15787;49.662;10.162;2022-09-29T08:01:30;97732.97;;;10.89;100.00
28588;BME280;15787;49.662;10.162;2022-09-29T08:03:58;97724.25;;;10.69;100.00
28588;BME280;15787;49.662;10.162;2022-09-29T08:06:28;97725.97;;;10.75;100.00
28588;BME280;15787;49.662;10.162;2022-09-29T08:08:58;97720.41;;;10.85;100.00
28588;BME280;15787;49.662;10.162;2022-09-29T08:11:31;97717.44;;;11.15;100.00
28588;BME280;15787;49.662;10.162;2022-09-29T08:14:00;97710.59;;;11.25;100.00
28588;BME280;15787;49.662;10.162;2022-09-29T08:16:29;97716.00;;;11.38;98.50
28588;BME280;15787;49.662;10.162;2022-09-29T08:18:58;97723.44;;;12.10;98.58
28588;BME280;15787;49.662;10.162;2022-09-29T08:21:26;97725.72;;;11.79;94.84
28588;BME280;15787;49.662;10.162;2022-09-29T08:23:56;97728.97;;;11.86;95.53
28588;BME280;15787;49.662;10.162;2022-09-29T08:26:27;97737.06;;;11.66;95.11
28588;BME280;15787;49.662;10.162;2022-09-29T08:29:07;97743.53;;;11.99;94.89
28588;BME280;15787;49.662;10.162;2022-09-29T08:31:41;97744.81;;;11.89;93.64
28588;BME280;15787;49.662;10.162;2022-09-29T08:34:09;97744.19;;;12.27;94.36
28588;BME280;15787;49.662;10.162;2022-09-29T08:36:39;97748.63;;;12.66;90.49
28588;BME280;15787;49.662;10.162;2022-09-29T08:39:09;97748.38;;;12.79;90.69
28588;BME280;15787;49.662;10.162;2022-09-29T08:41:49;97745.91;;;12.48;89.35
28588;BME280;15787;49.662;10.162;2022-09-29T08:44:23;97746.63;;;13.05;89.52
28588;BME280;15787;49.662;10.162;2022-09-29T08:47:11;97733.06;;;13.13;88.90
28588;BME280;15787;49.662;10.162;2022-09-29T08:49:43;97741.88;;;12.97;88.28
28588;BME280;15787;49.662;10.162;2022-09-29T08:52:15;97745.81;;;13.14;87.37
28588;BME280;15787;49.662;10.162;2022-09-29T08:54:46;97740.69;;;12.65;88.16
28588;BME280;15787;49.662;10.162;2022-09-29T08:57:17;97737.53;;;13.19;87.25
28588;BME280;15787;49.662;10.162;2022-09-29T08:59:51;97745.34;;;13.30;86.99
28588;BME280;15787;49.662;10.162;2022-09-29T09:02:47;97743.84;;;13.44;86.44
28588;BME280;15787;49.662;10.162;2022-09-29T09:08:40;97753.72;;;13.68;84.94
28588;BME280;15787;49.662;10.162;2022-09-29T09:11:21;97749.66;;;13.55;85.36
28588;BME280;15787;49.662;10.162;2022-09-29T09:13:59;97748.59;;;13.67;84.88
28588;BME280;15787;49.662;10.162;2022-09-29T09:16:42;97756.31;;;14.16;84.12
28588;BME280;15787;49.662;10.162;2022-09-29T09:19:35;97754.28;;;14.16;83.10
28588;BME280;15787;49.662;10.162;2022-09-29T09:22:18;97748.88;;;14.13;81.59
28588;BME280;15787;49.662;10.162;2022-09-29T09:24:54;97754.59;;;14.18;81.34
28588;BME280;15787;49.662;10.162;2022-09-29T09:27:26;97746.06;;;13.83;81.94
28588;BME280;15787;49.662;10.162;2022-09-29T09:30:03;97747.22;;;13.48;82.12
28588;BME280;15787;49.662;10.162;2022-09-29T09:32:36;97743.06;;;13.05;82.95
28588;BME280;15787;49.662;10.162;2022-09-29T09:35:19;97746.25;;;13.65;83.91
28588;BME280;15787;49.662;10.162;2022-09-29T09:37:52;97753.13;;;13.93;83.82
28588;BME280;15787;49.662;10.162;2022-09-29T09:40:24;97750.72;;;13.86;83.57
28588;BME280;15787;49.662;10.162;2022-09-29T09:42:58;97756.13;;;14.05;83.48
28588;BME280;15787;49.662;10.162;2022-09-29T09:45:32;97756.31;;;14.16;82.03
28588;BME280;15787;49.662;10.162;2022-09-29T09:48:04;97753.88;;;15.13;79.98
28588;BME280;15787;49.662;10.162;2022-09-29T09:50:38;97751.44;;;14.45;78.33
28588;BME280;15787;49.662;10.162;2022-09-29T09:53:15;97757.06;;;14.45;78.76
28588;BME280;15787;49.662;10.162;2022-09-29T09:55:52;97755.25;;;14.63;80.11
28588;BME280;15787;49.662;10.162;2022-09-29T10:01:27;97753.84;;;14.52;79.59
28588;BME280;15787;49.662;10.162;2022-09-29T10:03:57;97756.31;;;14.01;80.63
28588;BME280;15787;49.662;10.162;2022-09-29T10:06:26;97757.78;;;13.82;81.90
28588;BME280;15787;49.662;10.162;2022-09-29T10:08:54;97767.06;;;14.03;81.25
28588;BME280;15787;49.662;10.162;2022-09-29T10:11:24;97757.31;;;13.69;82.57
28588;BME280;15787;49.662;10.162;2022-09-29T10:13:58;97762.44;;;13.85;82.50
28588;BME280;15787;49.662;10.162;2022-09-29T10:16:32;97762.78;;;14.22;80.92
28588;BME280;15787;49.662;10.162;2022-09-29T10:19:07;97764.28;;;14.87;80.23
28588;BME280;15787;49.662;10.162;2022-09-29T10:21:38;97762.81;;;14.91;79.33
28588;BME280;15787;49.662;10.162;2022-09-29T10:24:20;97762.16;;;15.42;76.69
28588;BME280;15787;49.662;10.162;2022-09-29T10:26:52;97758.59;;;15.22;75.79
28588;BME280;15787;49.662;10.162;2022-09-29T10:29:28;97759.41;;;14.87;77.76
28588;BME280;15787;49.662;10.162;2022-09-29T10:32:03;97759.44;;;15.48;76.02
28588;BME280;15787;49.662;10.162;2022-09-29T10:34:33;97766.88;;;14.21;76.90
28588;BME280;15787;49.662;10.162;2022-09-29T10:37:04;97752.38;;;14.77;78.02
28588;BME280;15787;49.662;10.162;2022-09-29T10:39:37;97755.72;;;14.96;78.76
28588;BME280;15787;49.662;10.162;2022-09-29T10:42:15;97761.56;;;15.38;76.30
28588;BME280;15787;49.662;10.162;2022-09-29T10:44:50;97762.81;;;14.91;76.65
28588;BME280;15787;49.662;10.162;2022-09-29T10:47:19;97759.56;;;15.18;76.98
28588;BME280;15787;49.662;10.162;2022-09-29T10:50:06;97757.91;;;15.06;75.64
28588;BME280;15787;49.662;10.162;2022-09-29T10:52:35;97766.75;;;14.99;76.04
28588;BME280;15787;49.662;10.162;2022-09-29T10:55:04;97778.25;;;14.81;76.08
28588;BME280;15787;49.662;10.162;2022-09-29T10:57:33;97776.59;;;15.50;73.81
28588;BME280;15787;49.662;10.162;2022-09-29T11:00:05;97770.38;;;15.26;73.96
28588;BME280;15787;49.662;10.162;2022-09-29T11:02:36;97779.47;;;14.60;77.10
28588;BME280;15787;49.662;10.162;2022-09-29T11:05:16;97784.38;;;14.30;76.05
28588;BME280;15787;49.662;10.162;2022-09-29T11:07:47;97775.81;;;15.09;76.34
28588;BME280;15787;49.662;10.162;2022-09-29T11:10:26;97774.25;;;15.08;75.71
28588;BME280;15787;49.662;10.162;2022-09-29T11:12:55;97776.59;;;14.54;75.77
28588;BME280;15787;49.662;10.162;2022-09-29T11:15:36;97780.44;;;14.72;76.09
28588;BME280;15787;49.662;10.162;2022-09-29T11:18:17;97792.13;;;13.91;75.15
28588;BME280;15787;49.662;10.162;2022-09-29T11:20:48;97775.19;;;14.99;72.67
28588;BME280;15787;49.662;10.162;2022-09-29T11:23:24;97783.03;;;15.15;72.39
28588;BME280;15787;49.662;10.162;2022-09-29T11:26:15;97785.94;;;15.21;72.57
28588;BME280;15787;49.662;10.162;2022-09-29T11:29:01;97780.31;;;15.21;72.91
28588;BME280;15787;49.662;10.162;2022-09-29T11:31:38;97794.41;;;14.66;75.50
28588;BME280;15787;49.662;10.162;2022-09-29T11:34:51;97794.91;;;14.50;75.57
28588;BME280;15787;49.662;10.162;2022-09-29T11:37:31;97796.38;;;14.80;74.96
28588;BME280;15787;49.662;10.162;2022-09-29T11:40:10;97789.91;;;14.10;77.78
28588;BME280;15787;49.662;10.162;2022-09-29T11:42:55;97794.34;;;14.17;79.43
28588;BME280;15787;49.662;10.162;2022-09-29T11:45:34;97792.19;;;15.10;75.03
28588;BME280;15787;49.662;10.162;2022-09-29T11:48:34;97792.25;;;15.16;74.78
28588;BME280;15787;49.662;10.162;2022-09-29T11:51:12;97798.28;;;15.69;72.49
28588;BME280;15787;49.662;10.162;2022-09-29T11:54:03;97790.69;;;16.01;73.63
28588;BME280;15787;49.662;10.162;2022-09-29T11:56:43;97801.81;;;15.44;72.73
28588;BME280;15787;49.662;10.162;2022-09-29T11:59:31;97794.03;;;16.05;72.29
28588;BME280;15787;49.662;10.162;2022-09-29T12:02:34;97793.75;;;15.77;69.27
28588;BME280;15787;49.662;10.162;2022-09-29T12:05:15;97780.66;;;16.00;71.33
28588;BME280;15787;49.662;10.162;2022-09-29T12:07:53;97793.38;;;15.64;71.97
28588;BME280;15787;49.662;10.162;2022-09-29T12:10:43;97792.31;;;15.01;71.84
28588;BME280;15787;49.662;10.162;2022-09-29T12:13:19;97784.81;;;15.53;73.76
28588;BME280;15787;49.662;10.162;2022-09-29T12:15:52;97783.97;;;15.27;71.95
28588;BME280;15787;49.662;10.162;2022-09-29T12:18:26;97788.38;;;14.93;72.68
28588;BME280;15787;49.662;10.162;2022-09-29T12:21:00;97782.28;;;15.15;72.43
28588;BME280;15787;49.662;10.162;2022-09-29T12:23:29;97787.34;;;15.11;72.45
28588;BME280;15787;49.662;10.162;2022-09-29T12:26:03;97782.41;;;14.86;72.46
28588;BME280;15787;49.662;10.162;2022-09-29T12:28:46;97785.09;;;14.95;72.36
28588;BME280;15787;49.662;10.162;2022-09-29T12:31:25;97777.69;;;14.77;72.86
28588;BME280;15787;49.662;10.162;2022-09-29T12:33:57;97779.75;;;14.97;73.73
28588;BME280;15787;49.662;10.162;2022-09-29T12:36:39;97779.81;;;15.23;71.89
28588;BME280;15787;49.662;10.162;2022-09-29T12:42:20;97775.34;;;15.51;73.14
28588;BME280;15787;49.662;10.162;2022-09-29T12:44:52;97775.44;;;15.62;73.93
28588;BME280;15787;49.662;10.162;2022-09-29T12:47:28;97775.09;;;15.34;73.27
28588;BME280;15787;49.662;10.162;2022-09-29T12:50:04;97777.22;;;15.19;70.16
28588;BME280;15787;49.662;10.162;2022-09-29T12:52:43;97774.72;;;15.67;70.53
28588;BME280;15787;49.662;10.162;2022-09-29T12:55:17;97777.88;;;15.74;70.49
28588;BME280;15787;49.662;10.162;2022-09-29T12:57:48;97782.47;;;15.32;70.28
28588;BME280;15787;49.662;10.162;2022-09-29T13:00:18;97785.03;;;15.50;71.08
28588;BME280;15787;49.662;10.162;2022-09-29T13:06:18;97777.00;;;15.43;71.51
28588;BME280;15787;49.662;10.162;2022-09-29T13:09:07;97781.34;;;15.44;71.45
28588;BME280;15787;49.662;10.162;2022-09-29T13:12:05;97779.31;;;15.04;72.54
28588;BME280;15787;49.662;10.162;2022-09-29T13:14:56;97776.59;;;15.50;70.78
28588;BME280;15787;49.662;10.162;2022-09-29T13:17:36;97789.25;;;14.99;72.63
28588;BME280;15787;49.662;10.162;2022-09-29T13:20:41;97777.38;;;15.76;71.13
28588;BME280;15787;49.662;10.162;2022-09-29T13:23:26;97790.56;;;15.24;72.31
28588;BME280;15787;49.662;10.162;2022-09-29T13:26:11;97791.13;;;14.88;70.92
28588;BME280;15787;49.662;10.162;2022-09-29T13:28:45;97796.00;;;14.73;71.79
28588;BME280;15787;49.662;10.162;2022-09-29T13:31:17;97804.00;;;14.60;72.80
28588;BME280;15787;49.662;10.162;2022-09-29T13:33:50;97794.25;;;14.75;72.99
28588;BME280;15787;49.662;10.162;2022-09-29T13:36:24;97797.88;;;14.96;72.66